createdAt,value
2018-10-05T00:01:01.909Z,101336.55
2018-10-05T00:03:33.552Z,101334.98
2018-10-05T00:06:05.645Z,101330.06
2018-10-05T00:08:37.236Z,101334.13
2018-10-05T00:11:08.746Z,101333.12
2018-10-05T00:13:39.975Z,101322.86
2018-10-05T00:16:12.240Z,101329.69
2018-10-05T00:18:45.624Z,101328.33
2018-10-05T00:21:17.005Z,101332.06
2018-10-05T00:23:48.504Z,101327.14
2018-10-05T00:26:19.888Z,101323.06
2018-10-05T00:28:51.354Z,101331.72
2018-10-05T00:31:23.200Z,101325.58
2018-10-05T00:33:54.638Z,101336.44
2018-10-05T00:36:26.200Z,101325.06
2018-10-05T00:38:57.725Z,101323.84
2018-10-05T00:42:52.652Z,101316.38
2018-10-05T00:45:23.895Z,101309.93
2018-10-05T00:47:55.369Z,101307.22
2018-10-05T00:50:26.739Z,101306.50
2018-10-05T00:52:58.347Z,101305.14
2018-10-05T00:55:30.004Z,101303.28
2018-10-05T00:58:01.550Z,101297.00
2018-10-05T01:00:33.015Z,101297.00
2018-10-05T01:03:04.677Z,101300.73
2018-10-05T01:05:36.067Z,101289.50
2018-10-05T01:08:07.756Z,101293.95
2018-10-05T01:10:39.210Z,101295.94
2018-10-05T01:13:10.879Z,101283.39
2018-10-05T01:15:42.496Z,101285.73
2018-10-05T01:18:13.889Z,101291.02
2018-10-05T01:20:45.313Z,101289.80
2018-10-05T01:23:16.825Z,101289.29
2018-10-05T01:25:47.796Z,101289.80
2018-10-05T01:28:19.201Z,101281.23
2018-10-05T01:30:50.664Z,101291.80
2018-10-05T01:33:21.994Z,101286.88
2018-10-05T01:35:53.500Z,101280.94
2018-10-05T01:38:24.859Z,101278.73
2018-10-05T01:40:56.228Z,101279.38
2018-10-05T01:43:27.699Z,101278.52
2018-10-05T01:45:58.987Z,101278.19
2018-10-05T01:48:30.675Z,101277.47
2018-10-05T01:51:02.011Z,101274.25
2018-10-05T01:53:33.387Z,101276.75
2018-10-05T01:56:04.828Z,101273.56
2018-10-05T01:58:36.809Z,101274.41
2018-10-05T02:01:08.541Z,101274.04
2018-10-05T02:03:39.898Z,101275.56
2018-10-05T02:06:11.392Z,101271.48
2018-10-05T02:08:42.727Z,101271.11
2018-10-05T02:11:14.398Z,101267.92
2018-10-05T02:13:45.890Z,101266.84
2018-10-05T02:16:17.642Z,101263.48
2018-10-05T02:18:48.983Z,101260.42
2018-10-05T02:21:20.551Z,101255.98
2018-10-05T02:23:51.883Z,101253.44
2018-10-05T02:26:23.340Z,101247.64
2018-10-05T02:28:54.755Z,101240.14
2018-10-05T02:31:25.808Z,101246.92
2018-10-05T02:33:56.799Z,101239.25
2018-10-05T02:36:28.299Z,101240.98
2018-10-05T02:38:59.709Z,101238.91
2018-10-05T02:41:31.211Z,101237.05
2018-10-05T02:44:02.643Z,101233.36
2018-10-05T02:46:33.839Z,101231.02
2018-10-05T02:49:05.530Z,101236.20
2018-10-05T02:51:36.858Z,101238.58
2018-10-05T02:54:08.353Z,101234.13
2018-10-05T02:56:39.733Z,101230.91
2018-10-05T02:59:11.285Z,101225.35
2018-10-05T03:02:05.721Z,101221.92
2018-10-05T03:04:37.194Z,101219.84
2018-10-05T03:07:08.680Z,101214.08
2018-10-05T03:09:40.208Z,101220.86
2018-10-05T03:12:11.773Z,101217.30
2018-10-05T03:14:43.200Z,101212.17
2018-10-05T03:17:14.719Z,101223.23
2018-10-05T03:19:46.254Z,101205.53
2018-10-05T03:22:17.724Z,101214.08
2018-10-05T03:24:49.255Z,101211.03
2018-10-05T03:27:20.726Z,101210.66
2018-10-05T03:29:52.199Z,101196.20
2018-10-05T03:32:23.711Z,101196.75
2018-10-05T03:34:54.982Z,101193.63
2018-10-05T03:37:26.507Z,101200.45
2018-10-05T03:39:57.934Z,101191.97
2018-10-05T03:42:28.587Z,101195.39
2018-10-05T03:44:59.887Z,101192.31
2018-10-05T03:47:31.375Z,101190.95
2018-10-05T03:50:02.751Z,101192.31
2018-10-05T03:52:33.876Z,101188.61
2018-10-05T03:55:05.583Z,101192.81
2018-10-05T03:57:36.975Z,101193.48
2018-10-05T04:00:08.656Z,101195.83
2018-10-05T04:02:40.212Z,101193.11
2018-10-05T04:05:11.686Z,101188.84
2018-10-05T04:07:42.997Z,101192.77
2018-10-05T04:10:14.486Z,101187.86
2018-10-05T04:12:45.800Z,101183.58
2018-10-05T04:15:17.446Z,101190.56
2018-10-05T04:17:48.888Z,101192.27
2018-10-05T04:20:20.553Z,101185.28
2018-10-05T04:23:14.794Z,101188.84
2018-10-05T04:25:47.053Z,101190.83
2018-10-05T04:28:18.492Z,101192.70
2018-10-05T04:30:50.206Z,101195.41
2018-10-05T04:33:21.675Z,101193.55
2018-10-05T04:35:53.197Z,101191.84
2018-10-05T04:38:26.269Z,101199.64
2018-10-05T04:40:57.690Z,101192.66
2018-10-05T04:43:29.191Z,101192.66
2018-10-05T04:46:00.662Z,101188.42
2018-10-05T04:48:31.919Z,101187.23
2018-10-05T04:51:03.376Z,101187.70
2018-10-05T04:53:35.281Z,101194.86
2018-10-05T04:56:06.705Z,101190.42
2018-10-05T04:58:38.004Z,101189.06
2018-10-05T05:01:09.500Z,101182.28
2018-10-05T05:03:41.210Z,101184.36
2018-10-05T05:06:12.685Z,101181.94
2018-10-05T05:08:44.202Z,101185.00
2018-10-05T05:11:15.691Z,101189.73
2018-10-05T05:13:46.893Z,101187.88
2018-10-05T05:16:18.382Z,101189.02
2018-10-05T05:18:49.745Z,101190.38
2018-10-05T05:21:21.203Z,101199.23
2018-10-05T05:23:52.699Z,101192.58
2018-10-05T05:26:24.206Z,101195.30
2018-10-05T05:28:55.733Z,101198.85
2018-10-05T05:31:27.347Z,101202.92
2018-10-05T05:33:58.825Z,101195.30
2018-10-05T05:36:30.295Z,101201.56
2018-10-05T05:39:01.741Z,101205.29
2018-10-05T05:41:33.296Z,101206.64
2018-10-05T05:44:04.809Z,101209.86
2018-10-05T05:46:36.418Z,101214.06
2018-10-05T05:49:07.954Z,101211.14
2018-10-05T05:51:38.585Z,101214.57
2018-10-05T05:54:10.295Z,101204.91
2018-10-05T05:56:41.731Z,101206.64
2018-10-05T05:59:13.203Z,101210.71
2018-10-05T06:01:44.721Z,101210.20
2018-10-05T06:04:16.306Z,101214.14
2018-10-05T06:06:47.805Z,101211.05
2018-10-05T06:09:19.005Z,101209.70
2018-10-05T06:11:50.344Z,101212.06
2018-10-05T06:14:21.867Z,101221.91
2018-10-05T06:16:53.540Z,101223.26
2018-10-05T06:19:25.191Z,101221.56
2018-10-05T06:21:56.792Z,101215.97
2018-10-05T06:24:28.259Z,101218.55
2018-10-05T06:26:59.722Z,101214.14
2018-10-05T06:29:31.004Z,101211.77
2018-10-05T06:32:02.541Z,101214.98
2018-10-05T06:34:34.618Z,101216.34
2018-10-05T06:37:06.197Z,101217.20
2018-10-05T06:39:37.787Z,101220.55
2018-10-05T06:42:09.467Z,101208.98
2018-10-05T06:44:40.730Z,101208.92
2018-10-05T06:47:12.355Z,101209.98
2018-10-05T06:49:43.843Z,101212.99
2018-10-05T06:52:15.343Z,101211.98
2018-10-05T06:54:46.987Z,101211.64
2018-10-05T06:57:18.808Z,101217.27
2018-10-05T06:59:50.421Z,101226.39
2018-10-05T07:02:21.767Z,101223.04
2018-10-05T07:04:53.350Z,101223.89
2018-10-05T07:07:24.813Z,101227.45
2018-10-05T07:09:55.782Z,101226.81
2018-10-05T07:12:26.819Z,101218.55
2018-10-05T07:14:58.296Z,101216.72
2018-10-05T07:17:29.787Z,101210.95
2018-10-05T07:20:01.334Z,101208.58
2018-10-05T07:22:32.829Z,101210.11
2018-10-05T07:25:04.355Z,101208.24
2018-10-05T07:27:35.782Z,101206.17
2018-10-05T07:30:07.781Z,101207.09
2018-10-05T07:32:39.221Z,101198.61
2018-10-05T07:35:10.713Z,101199.97
2018-10-05T07:37:42.208Z,101208.79
2018-10-05T07:40:13.696Z,101202.89
2018-10-05T07:42:45.213Z,101204.93
2018-10-05T07:45:17.352Z,101203.95
2018-10-05T07:47:48.834Z,101201.95
2018-10-05T07:50:20.206Z,101203.52
2018-10-05T07:52:51.676Z,101198.33
2018-10-05T07:55:23.208Z,101198.67
2018-10-05T07:57:54.771Z,101203.08
2018-10-05T08:00:26.314Z,101207.02
2018-10-05T08:02:57.860Z,101202.95
2018-10-05T08:05:29.421Z,101202.95
2018-10-05T08:08:00.844Z,101204.43
2018-10-05T08:10:32.388Z,101203.08
2018-10-05T08:13:03.901Z,101200.23
2018-10-05T08:15:35.573Z,101201.93
2018-10-05T08:18:07.211Z,101198.06
2018-10-05T08:20:38.706Z,101201.28
2018-10-05T08:23:10.352Z,101202.81
2018-10-05T08:25:41.995Z,101202.30
2018-10-05T08:28:13.659Z,101198.27
2018-10-05T08:30:45.220Z,101199.48
2018-10-05T08:33:16.680Z,101196.27
2018-10-05T08:35:48.220Z,101191.05
2018-10-05T08:38:19.734Z,101185.83
2018-10-05T08:40:51.670Z,101184.67
2018-10-05T08:43:23.208Z,101184.88
2018-10-05T08:45:54.823Z,101180.30
2018-10-05T08:48:26.489Z,101171.10
2018-10-05T08:50:57.912Z,101176.42
2018-10-05T08:53:29.415Z,101180.87
2018-10-05T08:56:00.901Z,101176.63
2018-10-05T08:58:32.432Z,101169.91
2018-10-05T09:01:03.802Z,101165.77
2018-10-05T09:03:34.781Z,101159.59
2018-10-05T09:06:05.988Z,101161.10
2018-10-05T09:08:37.647Z,101164.02
2018-10-05T09:11:09.231Z,101158.88
2018-10-05T09:13:40.745Z,101159.25
2018-10-05T09:16:12.326Z,101155.48
2018-10-05T09:18:43.739Z,101153.76
2018-10-05T09:21:15.323Z,101153.41
2018-10-05T09:23:46.775Z,101149.81
2018-10-05T09:26:18.216Z,101144.81
2018-10-05T09:28:49.670Z,101137.97
2018-10-05T09:31:21.194Z,101122.97
2018-10-05T09:33:52.701Z,101122.25
2018-10-05T09:36:24.220Z,101125.95
2018-10-05T09:38:55.729Z,101113.30
2018-10-05T09:41:27.352Z,101103.75
2018-10-05T09:43:58.788Z,101101.51
2018-10-05T09:46:29.806Z,101103.12
2018-10-05T09:49:01.347Z,101094.75
2018-10-05T09:51:32.781Z,101096.29
2018-10-05T09:54:04.210Z,101089.45
2018-10-05T09:56:35.391Z,101086.55
2018-10-05T09:59:06.745Z,101077.32
2018-10-05T10:01:43.343Z,101077.32
2018-10-05T10:04:14.710Z,101074.23
2018-10-05T10:06:46.274Z,101075.25
2018-10-05T10:09:17.752Z,101059.73
2018-10-05T10:11:49.377Z,101061.75
2018-10-05T10:14:21.221Z,101050.00
2018-10-05T10:16:52.771Z,101053.04
2018-10-05T10:19:24.201Z,101050.28
2018-10-05T10:21:55.759Z,101050.61
2018-10-05T10:24:28.536Z,101046.20
2018-10-05T10:27:00.293Z,101044.28
2018-10-05T10:29:31.881Z,101034.58
2018-10-05T10:32:03.370Z,101032.38
2018-10-05T10:34:34.840Z,101023.37
2018-10-05T10:37:05.787Z,101025.76
2018-10-05T10:39:36.822Z,101017.94
2018-10-05T10:42:08.647Z,101022.91
2018-10-05T10:44:39.992Z,101017.28
2018-10-05T10:47:10.598Z,101008.28
2018-10-05T10:49:42.017Z,101006.41
2018-10-05T10:52:13.595Z,101001.67
2018-10-05T10:54:44.870Z,100999.09
2018-10-05T10:57:16.272Z,100991.61
2018-10-05T10:59:47.542Z,100987.16
2018-10-05T11:02:19.004Z,100989.40
2018-10-05T11:04:50.579Z,100987.70
2018-10-05T11:07:22.210Z,100993.63
2018-10-05T11:09:53.719Z,100976.84
2018-10-05T11:12:25.000Z,100978.67
2018-10-05T11:14:56.356Z,100975.96
2018-10-05T11:17:27.771Z,100976.14
2018-10-05T11:19:59.220Z,100962.52
2018-10-05T11:22:30.732Z,100960.16
2018-10-05T11:25:02.225Z,100961.38
2018-10-05T11:27:33.698Z,100953.22
2018-10-05T11:30:05.213Z,100951.20
2018-10-05T11:32:37.347Z,100941.36
2018-10-05T11:35:08.788Z,100943.05
2018-10-05T11:37:40.216Z,100932.17
2018-10-05T11:40:11.722Z,100938.64
2018-10-05T11:42:43.310Z,100923.51
2018-10-05T11:45:14.799Z,100930.16
2018-10-05T11:47:46.215Z,100922.52
2018-10-05T11:50:17.751Z,100927.32
2018-10-05T11:52:49.201Z,100920.19
2018-10-05T11:55:20.668Z,100925.98
2018-10-05T11:57:52.223Z,100918.50
2018-10-05T12:00:23.712Z,100918.98
2018-10-05T12:02:55.071Z,100911.67
2018-10-05T12:05:26.684Z,100916.92
2018-10-05T12:07:58.217Z,100906.05
2018-10-05T12:10:29.728Z,100903.81
2018-10-05T12:13:01.706Z,100897.36
2018-10-05T12:15:33.394Z,100887.52
2018-10-05T12:18:04.795Z,100887.48
2018-10-05T12:20:35.886Z,100880.35
2018-10-05T12:23:07.378Z,100870.14
2018-10-05T12:25:38.766Z,100872.50
2018-10-05T12:28:10.273Z,100861.27
2018-10-05T12:30:41.652Z,100866.73
2018-10-05T12:33:13.238Z,100868.60
2018-10-05T12:35:44.675Z,100861.95
2018-10-05T12:38:15.989Z,100859.42
2018-10-05T12:40:47.545Z,100856.70
2018-10-05T12:43:19.429Z,100850.91
2018-10-05T12:45:50.906Z,100849.04
2018-10-05T12:48:22.391Z,100847.02
2018-10-05T12:50:53.731Z,100848.52
2018-10-05T12:53:25.292Z,100847.68
2018-10-05T12:55:56.762Z,100846.86
2018-10-05T12:58:28.213Z,100836.86
2018-10-05T13:00:59.835Z,100842.30
2018-10-05T13:03:31.207Z,100835.48
2018-10-05T13:06:02.767Z,100832.06
2018-10-05T13:08:34.491Z,100824.43
2018-10-05T13:11:05.789Z,100822.05
2018-10-05T13:13:37.314Z,100815.25
2018-10-05T13:16:09.317Z,100810.33
2018-10-05T13:18:40.759Z,100809.28
2018-10-05T13:21:12.216Z,100794.00
2018-10-05T13:23:43.922Z,100800.82
2018-10-05T13:26:15.394Z,100798.28
2018-10-05T13:28:47.227Z,100796.75
2018-10-05T13:31:18.696Z,100793.52
2018-10-05T13:33:49.984Z,100789.44
2018-10-05T13:36:20.576Z,100784.36
2018-10-05T13:38:51.879Z,100787.26
2018-10-05T13:41:23.376Z,100781.81
2018-10-05T13:43:54.804Z,100786.05
2018-10-05T13:46:26.220Z,100784.16
2018-10-05T13:48:57.725Z,100777.70
2018-10-05T13:51:29.633Z,100786.88
2018-10-05T13:54:01.004Z,100772.47
2018-10-05T13:56:32.385Z,100771.44
2018-10-05T13:59:03.791Z,100769.23
2018-10-05T14:01:35.219Z,100763.13
2018-10-05T14:04:06.985Z,100767.55
2018-10-05T14:06:39.677Z,100764.32
2018-10-05T14:09:12.908Z,100765.20
2018-10-05T14:11:44.776Z,100761.94
2018-10-05T14:14:16.386Z,100756.00
2018-10-05T14:16:47.754Z,100744.81
2018-10-05T14:19:19.255Z,100740.03
2018-10-05T14:21:50.719Z,100742.94
2018-10-05T14:24:22.199Z,100743.94
2018-10-05T14:26:53.648Z,100742.94
2018-10-05T14:29:25.234Z,100740.73
2018-10-05T14:31:56.609Z,100746.33
2018-10-05T14:34:27.980Z,100733.25
2018-10-05T14:36:58.520Z,100726.97
2018-10-05T14:39:29.831Z,100725.08
2018-10-05T14:42:01.196Z,100730.19
2018-10-05T14:44:32.728Z,100726.80
2018-10-05T14:47:04.203Z,100719.64
2018-10-05T14:49:35.798Z,100717.95
2018-10-05T14:52:07.393Z,100697.56
2018-10-05T14:54:38.827Z,100700.64
2018-10-05T14:57:10.262Z,100698.94
2018-10-05T14:59:44.450Z,100701.29
2018-10-05T15:02:15.781Z,100697.21
2018-10-05T15:04:47.674Z,100706.06
2018-10-05T15:07:18.985Z,100700.12
2018-10-05T15:09:49.542Z,100688.71
2018-10-05T15:12:21.012Z,100683.98
2018-10-05T15:14:52.696Z,100685.34
2018-10-05T15:17:24.213Z,100678.19
2018-10-05T15:19:56.213Z,100670.87
2018-10-05T15:22:27.680Z,100670.39
2018-10-05T15:24:59.202Z,100671.23
2018-10-05T15:27:30.622Z,100665.95
2018-10-05T15:30:01.998Z,100659.52
2018-10-05T15:32:33.434Z,100665.61
2018-10-05T15:35:04.725Z,100662.23
2018-10-05T15:38:43.260Z,100651.38
2018-10-05T15:41:14.572Z,100652.22
2018-10-05T15:43:45.704Z,100651.03
2018-10-05T15:47:14.540Z,100651.72
2018-10-05T15:49:46.423Z,100648.33
2018-10-05T15:52:19.756Z,100650.35
2018-10-05T15:54:51.439Z,100643.55
2018-10-05T15:57:23.277Z,100642.52
2018-10-05T15:59:54.872Z,100643.73
2018-10-05T16:02:26.351Z,100638.47
2018-10-05T16:04:57.755Z,100637.77
2018-10-05T16:07:29.223Z,100633.67
2018-10-05T16:10:00.651Z,100634.37
2018-10-05T16:12:32.257Z,100635.73
2018-10-05T16:15:03.738Z,100629.47
2018-10-05T16:17:35.517Z,100619.11
2018-10-05T16:20:07.313Z,100621.83
2018-10-05T16:22:38.804Z,100623.86
2018-10-05T16:25:10.303Z,100619.77
2018-10-05T16:27:41.752Z,100616.39
2018-10-05T16:30:13.483Z,100606.52
2018-10-05T16:32:45.213Z,100613.50
2018-10-05T16:35:16.715Z,100615.34
2018-10-05T16:37:48.342Z,100612.63
2018-10-05T16:40:19.744Z,100610.62
2018-10-05T16:42:51.205Z,100608.91
2018-10-05T16:45:23.735Z,100611.28
2018-10-05T16:47:55.306Z,100608.72
2018-10-05T16:50:26.799Z,100605.84
2018-10-05T16:52:58.567Z,100602.12
2018-10-05T16:55:30.523Z,100602.12
2018-10-05T16:58:02.047Z,100595.67
2018-10-05T17:00:33.589Z,100598.02
2018-10-05T17:03:04.996Z,100593.11
2018-10-05T17:05:36.711Z,100592.61
2018-10-05T17:08:08.361Z,100599.41
2018-10-05T17:10:39.849Z,100601.44
2018-10-05T17:13:11.206Z,100599.23
2018-10-05T17:15:42.749Z,100598.88
2018-10-05T17:18:14.208Z,100590.91
2018-10-05T17:20:45.699Z,100594.59
2018-10-05T17:23:16.906Z,100597.50
2018-10-05T17:25:48.342Z,100598.34
2018-10-05T17:28:19.706Z,100592.58
2018-10-05T17:30:50.987Z,100590.34
2018-10-05T17:33:22.729Z,100588.50
2018-10-05T17:35:54.203Z,100576.42
2018-10-05T17:38:25.811Z,100592.22
2018-10-05T17:40:56.761Z,100584.91
2018-10-05T17:43:27.804Z,100585.42
2018-10-05T17:45:58.809Z,100578.99
2018-10-05T17:48:30.747Z,100571.33
2018-10-05T17:51:02.029Z,100571.84
2018-10-05T17:53:33.367Z,100567.77
2018-10-05T17:56:04.775Z,100570.84
2018-10-05T17:58:36.196Z,100567.77
2018-10-05T18:01:07.707Z,100564.89
2018-10-05T18:03:39.206Z,100565.73
2018-10-05T18:06:10.688Z,100560.98
2018-10-05T18:08:41.984Z,100560.98
2018-10-05T18:11:13.625Z,100563.70
2018-10-05T18:13:44.889Z,100553.86
2018-10-05T18:16:16.319Z,100555.22
2018-10-05T18:18:47.749Z,100559.30
2018-10-05T18:21:19.190Z,100552.83
2018-10-05T18:23:50.662Z,100555.22
2018-10-05T18:26:22.192Z,100549.42
2018-10-05T18:28:53.682Z,100540.80
2018-10-05T18:31:25.075Z,100540.44
2018-10-05T18:33:56.634Z,100539.44
2018-10-05T18:36:27.906Z,100534.16
2018-10-05T18:38:58.775Z,100537.72
2018-10-05T18:41:29.567Z,100534.67
2018-10-05T18:44:07.694Z,100529.76
2018-10-05T18:46:38.635Z,100540.27
2018-10-05T18:49:09.578Z,100534.83
2018-10-05T18:51:40.636Z,100531.79
2018-10-05T18:54:11.633Z,100535.86
2018-10-05T18:57:23.300Z,100526.00
2018-10-05T18:59:54.535Z,100528.22
2018-10-05T19:02:25.881Z,100519.22
2018-10-05T19:04:57.320Z,100521.75
2018-10-05T19:07:28.801Z,100522.63
2018-10-05T19:09:59.740Z,100515.48
2018-10-05T19:12:30.757Z,100509.05
2018-10-05T19:15:01.744Z,100511.77
2018-10-05T19:17:32.699Z,100519.03
2018-10-05T19:20:04.183Z,100516.84
2018-10-05T19:22:35.853Z,100517.68
2018-10-05T19:25:07.529Z,100515.16
2018-10-05T19:27:38.973Z,100509.72
2018-10-05T19:30:10.753Z,100511.08
2018-10-05T19:32:42.498Z,100507.84
2018-10-05T19:35:13.881Z,100502.93
2018-10-05T19:37:45.402Z,100497.14
2018-10-05T19:40:16.751Z,100493.06
2018-10-05T19:42:48.392Z,100488.99
2018-10-05T19:45:19.733Z,100481.88
2018-10-05T19:47:51.359Z,100472.03
2018-10-05T19:50:22.791Z,100483.39
2018-10-05T19:52:54.368Z,100480.67
2018-10-05T19:55:25.749Z,100476.11
2018-10-05T19:57:57.276Z,100474.40
2018-10-05T20:00:28.686Z,100478.47
2018-10-05T20:03:00.205Z,100472.20
2018-10-05T20:05:31.680Z,100473.88
2018-10-05T20:08:02.992Z,100474.08
2018-10-05T20:10:34.739Z,100475.95
2018-10-05T20:13:06.211Z,100469.16
2018-10-05T20:15:37.752Z,100474.40
2018-10-05T20:18:09.259Z,100467.09
2018-10-05T20:20:40.974Z,100463.21
2018-10-05T20:23:11.562Z,100457.42
2018-10-05T20:25:43.194Z,100464.57
2018-10-05T20:28:14.706Z,100459.66
2018-10-05T20:30:46.200Z,100458.30
2018-10-05T20:33:18.199Z,100463.21
2018-10-05T20:35:49.714Z,100460.49
2018-10-05T20:38:21.363Z,100449.63
2018-10-05T20:40:52.758Z,100459.98
2018-10-05T20:43:24.783Z,100449.63
2018-10-05T20:45:56.300Z,100453.34
2018-10-05T20:48:27.702Z,100456.06
2018-10-05T20:50:59.194Z,100454.70
2018-10-05T20:53:30.660Z,100461.01
2018-10-05T20:56:02.206Z,100461.85
2018-10-05T20:58:33.756Z,100471.00
2018-10-05T21:01:05.207Z,100471.00
2018-10-05T21:03:36.654Z,100478.82
2018-10-05T21:06:07.994Z,100479.85
2018-10-05T21:08:39.429Z,100469.14
2018-10-05T21:11:10.714Z,100466.76
2018-10-05T21:13:42.192Z,100472.19
2018-10-05T21:16:13.664Z,100463.72
2018-10-05T21:18:44.987Z,100462.88
2018-10-05T21:21:16.637Z,100459.31
2018-10-05T21:23:47.979Z,100458.28
2018-10-05T21:26:19.486Z,100455.56
2018-10-05T21:28:50.830Z,100460.16
2018-10-05T21:31:22.314Z,100448.44
2018-10-05T21:33:54.207Z,100458.28
2018-10-05T21:36:25.728Z,100455.23
2018-10-05T21:38:57.015Z,100447.92
2018-10-05T21:41:28.535Z,100449.30
2018-10-05T21:43:59.883Z,100443.50
2018-10-05T21:46:31.388Z,100440.31
2018-10-05T21:49:02.736Z,100439.95
2018-10-05T21:51:34.253Z,100442.14
2018-10-05T21:54:05.624Z,100436.39
2018-10-05T21:56:36.957Z,100426.56
2018-10-05T21:59:07.583Z,100422.48
2018-10-05T22:01:38.998Z,100421.80
2018-10-05T22:04:10.634Z,100426.91
2018-10-05T22:06:42.217Z,100429.11
2018-10-05T22:09:13.716Z,100432.34
2018-10-05T22:11:44.987Z,100420.13
2018-10-05T22:14:16.613Z,100432.34
2018-10-05T22:16:47.862Z,100421.48
2018-10-05T22:19:19.526Z,100425.20
2018-10-05T22:21:50.885Z,100419.77
2018-10-05T22:24:22.625Z,100411.10
2018-10-05T22:26:54.190Z,100411.30
2018-10-05T22:29:25.697Z,100409.94
2018-10-05T22:31:57.200Z,100410.27
2018-10-05T22:34:28.728Z,100402.63
2018-10-05T22:37:00.207Z,100402.11
2018-10-05T22:39:31.741Z,100399.08
2018-10-05T22:42:03.197Z,100401.79
2018-10-05T22:44:34.720Z,100401.79
2018-10-05T22:47:06.320Z,100400.08
2018-10-05T22:49:37.732Z,100397.55
2018-10-05T22:52:09.651Z,100404.85
2018-10-05T22:54:41.207Z,100395.83
2018-10-05T22:57:13.823Z,100400.42
2018-10-05T22:59:45.307Z,100397.70
2018-10-05T23:02:16.724Z,100396.86
2018-10-05T23:04:47.690Z,100391.59
2018-10-05T23:07:18.603Z,100394.50
2018-10-05T23:09:50.209Z,100404.33
2018-10-05T23:12:21.696Z,100401.28
2018-10-05T23:14:53.391Z,100402.64
2018-10-05T23:17:24.738Z,100406.20
2018-10-05T23:19:56.191Z,100407.72
2018-10-05T23:22:28.582Z,100403.64
2018-10-05T23:24:59.964Z,100406.36
2018-10-05T23:27:30.554Z,100403.31
2018-10-05T23:30:01.839Z,100405.70
2018-10-05T23:32:33.371Z,100403.14
2018-10-05T23:35:04.787Z,100405.86
2018-10-05T23:37:36.410Z,100401.47
2018-10-05T23:40:07.836Z,100396.36
2018-10-05T23:42:39.195Z,100403.83
2018-10-05T23:45:10.702Z,100400.95
2018-10-05T23:47:41.997Z,100404.18
2018-10-05T23:50:13.534Z,100407.38
2018-10-05T23:52:46.350Z,100403.49
2018-10-05T23:55:17.716Z,100402.81
2018-10-05T23:57:49.680Z,100400.59
